sensor_id;sensor_type;location;lat;lon;timestamp;P1;P2;P0
61879;PMS7003;47817;52.798;27.544;2023-04-02T00:01:35;11.4;8.8;6.2
61879;PMS7003;47817;52.798;27.544;2023-04-02T00:05:53;11.4;7.4;5
61879;PMS7003;47817;52.798;27.544;2023-04-02T00:11:28;9;8.4;6
61879;PMS7003;47817;52.798;27.544;2023-04-02T00:16:22;9.8;7.6;5.8
61879;PMS7003;47817;52.798;27.544;2023-04-02T00:21:02;11;8.3;5.8
61879;PMS7003;47817;52.798;27.544;2023-04-02T00:26:38;11.6;10.6;7.4
61879;PMS7003;47817;52.798;27.544;2023-04-02T00:30:53;11.6;8.8;5.8
61879;PMS7003;47817;52.798;27.544;2023-04-02T00:35:53;7.8;6.8;4.2
61879;PMS7003;47817;52.798;27.544;2023-04-02T00:41:12;9.6;7.4;4.4
61879;PMS7003;47817;52.798;27.544;2023-04-02T00:45:53;7.8;6;3.6
61879;PMS7003;47817;52.798;27.544;2023-04-02T00:51:37;9.6;6.4;3
61879;PMS7003;47817;52.798;27.544;2023-04-02T00:55:59;10.5;7.8;4.8
61879;PMS7003;47817;52.798;27.544;2023-04-02T01:01:03;8.2;6.4;3.6
61879;PMS7003;47817;52.798;27.544;2023-04-02T01:06:37;10.2;7.2;4
61879;PMS7003;47817;52.798;27.544;2023-04-02T01:11:12;8;6;3.2
61879;PMS7003;47817;52.798;27.544;2023-04-02T01:16:40;10.6;5.8;3.4
61879;PMS7003;47817;52.798;27.544;2023-04-02T01:21:15;7;6;3
61879;PMS7003;47817;52.798;27.544;2023-04-02T01:26:20;9;7;4
61879;PMS7003;47817;52.798;27.544;2023-04-02T01:31:39;11.4;8.4;6.6
61879;PMS7003;47817;52.798;27.544;2023-04-02T01:36:04;9.2;7;4.4
61879;PMS7003;47817;52.798;27.544;2023-04-02T01:41:40;12.8;10.4;6.6
61879;PMS7003;47817;52.798;27.544;2023-04-02T01:46:04;14.2;11.4;8
61879;PMS7003;47817;52.798;27.544;2023-04-02T01:51:22;13.2;10.4;7.4
61879;PMS7003;47817;52.798;27.544;2023-04-02T01:56:15;14.3;9.8;7.5
61879;PMS7003;47817;52.798;27.544;2023-04-02T02:01:10;10.4;9;6.2
61879;PMS7003;47817;52.798;27.544;2023-04-02T02:06:37;10.6;6.8;3.8
61879;PMS7003;47817;52.798;27.544;2023-04-02T02:10:53;12.8;7;5.4
61879;PMS7003;47817;52.798;27.544;2023-04-02T02:15:55;9;6.6;3.4
61879;PMS7003;47817;52.798;27.544;2023-04-02T02:21:25;10.2;7.4;3.8
61879;PMS7003;47817;52.798;27.544;2023-04-02T02:26:03;8.4;7;4.4
61879;PMS7003;47817;52.798;27.544;2023-04-02T02:31:37;9.5;7.5;4.5
61879;PMS7003;47817;52.798;27.544;2023-04-02T02:35:54;9.2;6.8;4
61879;PMS7003;47817;52.798;27.544;2023-04-02T02:41:18;8;6.2;4.4
61879;PMS7003;47817;52.798;27.544;2023-04-02T02:46:21;8.8;5.4;3.8
61879;PMS7003;47817;52.798;27.544;2023-04-02T02:51:10;10.2;8.2;6.2
61879;PMS7003;47817;52.798;27.544;2023-04-02T02:55:54;9.8;7;4.8
61879;PMS7003;47817;52.798;27.544;2023-04-02T03:00:53;9;6.3;3.8
61879;PMS7003;47817;52.798;27.544;2023-04-02T03:06:00;6.4;5;3.6
61879;PMS7003;47817;52.798;27.544;2023-04-02T03:11:41;9;8;5.2
61879;PMS7003;47817;52.798;27.544;2023-04-02T03:15:56;7;5.8;4
61879;PMS7003;47817;52.798;27.544;2023-04-02T03:21:32;10.2;7.4;4.4
61879;PMS7003;47817;52.798;27.544;2023-04-02T03:26:03;26.6;20.8;13.4
61879;PMS7003;47817;52.798;27.544;2023-04-02T03:31:18;18.6;14.4;10.6
61879;PMS7003;47817;52.798;27.544;2023-04-02T03:36:39;14.2;10.2;6.4
61879;PMS7003;47817;52.798;27.544;2023-04-02T03:41:16;20.4;15.6;10
61879;PMS7003;47817;52.798;27.544;2023-04-02T03:46:30;31.8;23.4;13
61879;PMS7003;47817;52.798;27.544;2023-04-02T03:51:04;23.6;20;12.4
61879;PMS7003;47817;52.798;27.544;2023-04-02T03:55:53;12;9.2;5.6
61879;PMS7003;47817;52.798;27.544;2023-04-02T04:01:38;16.2;9.4;6.8
61879;PMS7003;47817;52.798;27.544;2023-04-02T04:05:54;11;8.3;4.5
61879;PMS7003;47817;52.798;27.544;2023-04-02T04:11:32;11.6;7.8;5.8
61879;PMS7003;47817;52.798;27.544;2023-04-02T04:16:13;7;6.2;3.8
61879;PMS7003;47817;52.798;27.544;2023-04-02T04:21:19;10.2;7.8;5.8
61879;PMS7003;47817;52.798;27.544;2023-04-02T04:26:42;13.8;10;7.3
61879;PMS7003;47817;52.798;27.544;2023-04-02T04:31:07;9.6;7;4
61879;PMS7003;47817;52.798;27.544;2023-04-02T04:36:32;8.4;6.4;4.2
61879;PMS7003;47817;52.798;27.544;2023-04-02T04:40:54;8.2;6.8;4
61879;PMS7003;47817;52.798;27.544;2023-04-02T04:46:18;6.8;5.2;2.8
61879;PMS7003;47817;52.798;27.544;2023-04-02T04:51:40;7.4;5.2;3.2
61879;PMS7003;47817;52.798;27.544;2023-04-02T04:56:20;9.4;5.2;3.4
61879;PMS7003;47817;52.798;27.544;2023-04-02T05:01:34;9.2;6.6;4.4
61879;PMS7003;47817;52.798;27.544;2023-04-02T05:06:05;22;16;9.3
61879;PMS7003;47817;52.798;27.544;2023-04-02T05:11:18;18.2;14.8;9
61879;PMS7003;47817;52.798;27.544;2023-04-02T05:16:37;15.2;9.2;6.4
61879;PMS7003;47817;52.798;27.544;2023-04-02T05:21:13;8.2;7;4.8
61879;PMS7003;47817;52.798;27.544;2023-04-02T05:26:29;10.8;8.2;4.6
61879;PMS7003;47817;52.798;27.544;2023-04-02T05:30:54;7.2;6.4;4.6
61879;PMS7003;47817;52.798;27.544;2023-04-02T05:36:18;10.4;7.8;4.2
61879;PMS7003;47817;52.798;27.544;2023-04-02T05:41:38;8.2;5.8;4
61879;PMS7003;47817;52.798;27.544;2023-04-02T05:46:22;7.8;5;3.6
61879;PMS7003;47817;52.798;27.544;2023-04-02T05:51:34;8.4;6;4
61879;PMS7003;47817;52.798;27.544;2023-04-02T05:55:54;6;5;3.4
61879;PMS7003;47817;52.798;27.544;2023-04-02T06:01:19;7.8;6;4
61879;PMS7003;47817;52.798;27.544;2023-04-02T06:06:44;8.4;6.8;4.4
61879;PMS7003;47817;52.798;27.544;2023-04-02T06:10:54;9.2;6.2;4
61879;PMS7003;47817;52.798;27.544;2023-04-02T06:16:31;6.2;5.2;3.6
61879;PMS7003;47817;52.798;27.544;2023-04-02T06:21:09;7.5;5.3;4
61879;PMS7003;47817;52.798;27.544;2023-04-02T06:26:17;8.8;7;3.8
61879;PMS7003;47817;52.798;27.544;2023-04-02T06:31:39;9.6;7.4;5
61879;PMS7003;47817;52.798;27.544;2023-04-02T06:36:13;10.6;7.4;5
61879;PMS7003;47817;52.798;27.544;2023-04-02T06:41:29;8.2;7;4.8
61879;PMS7003;47817;52.798;27.544;2023-04-02T06:46:02;9.2;6.6;4.2
61879;PMS7003;47817;52.798;27.544;2023-04-02T06:51:15;9.8;7.8;5
61879;PMS7003;47817;52.798;27.544;2023-04-02T06:56:39;10.8;8.6;5.6
61879;PMS7003;47817;52.798;27.544;2023-04-02T07:01:15;10.8;9;5.8
61879;PMS7003;47817;52.798;27.544;2023-04-02T07:06:29;10.2;7.4;4.4
61879;PMS7003;47817;52.798;27.544;2023-04-02T07:11:08;11.8;8.8;5.3
61879;PMS7003;47817;52.798;27.544;2023-04-02T07:16:29;10;8.4;5.2
61879;PMS7003;47817;52.798;27.544;2023-04-02T07:21:37;10;7.6;4.8
61879;PMS7003;47817;52.798;27.544;2023-04-02T07:26:18;8.2;7.8;5.2
61879;PMS7003;47817;52.798;27.544;2023-04-02T07:31:27;10.4;8.2;5.2
61879;PMS7003;47817;52.798;27.544;2023-04-02T07:35:53;10.2;8.6;5.6
61879;PMS7003;47817;52.798;27.544;2023-04-02T07:41:31;8.8;7.4;5
61879;PMS7003;47817;52.798;27.544;2023-04-02T07:46:37;12.6;8.4;5.2
61879;PMS7003;47817;52.798;27.544;2023-04-02T07:51:01;13;10.5;7
61879;PMS7003;47817;52.798;27.544;2023-04-02T07:56:29;12.2;9.4;6.8
61879;PMS7003;47817;52.798;27.544;2023-04-02T08:00:53;13;11;6.8
61879;PMS7003;47817;52.798;27.544;2023-04-02T08:06:15;16.8;11.6;7
61879;PMS7003;47817;52.798;27.544;2023-04-02T08:11:35;13.2;9.4;6
61879;PMS7003;47817;52.798;27.544;2023-04-02T08:15:53;15.2;12;7
61879;PMS7003;47817;52.798;27.544;2023-04-02T08:21:27;12.5;10;6.3
61879;PMS7003;47817;52.798;27.544;2023-04-02T08:25:59;15.4;12.4;8
61879;PMS7003;47817;52.798;27.544;2023-04-02T08:31:23;14.6;11.6;7
61879;PMS7003;47817;52.798;27.544;2023-04-02T08:36:38;13.8;11.6;7.6
61879;PMS7003;47817;52.798;27.544;2023-04-02T08:41:11;13;10;7.2
61879;PMS7003;47817;52.798;27.544;2023-04-02T08:46:32;12.6;9.4;6.2
61879;PMS7003;47817;52.798;27.544;2023-04-02T08:50:53;10;8;6
61879;PMS7003;47817;52.798;27.544;2023-04-02T08:56:30;10.4;8.4;5.6
61879;PMS7003;47817;52.798;27.544;2023-04-02T09:01:41;8.2;6;4.6
61879;PMS7003;47817;52.798;27.544;2023-04-02T09:06:08;9.4;7.8;5.4
61879;PMS7003;47817;52.798;27.544;2023-04-02T09:11:32;13;7.8;5.6
61879;PMS7003;47817;52.798;27.544;2023-04-02T09:15:55;11;8.8;6.3
61879;PMS7003;47817;52.798;27.544;2023-04-02T09:21:32;10.2;7.2;5.6
61879;PMS7003;47817;52.798;27.544;2023-04-02T09:26:39;10.4;7.6;5.2
61879;PMS7003;47817;52.798;27.544;2023-04-02T09:31:18;13.4;8.8;6.4
61879;PMS7003;47817;52.798;27.544;2023-04-02T09:36:32;10.4;7.2;4.8
61879;PMS7003;47817;52.798;27.544;2023-04-02T09:41:16;5.6;5.2;4
61879;PMS7003;47817;52.798;27.544;2023-04-02T09:46:31;10.8;6.8;5.3
61879;PMS7003;47817;52.798;27.544;2023-04-02T09:51:39;8.4;6.8;5.2
61879;PMS7003;47817;52.798;27.544;2023-04-02T09:56:16;7.6;6.2;5
61879;PMS7003;47817;52.798;27.544;2023-04-02T10:01:32;9.6;7.4;5.2
61879;PMS7003;47817;52.798;27.544;2023-04-02T10:06:10;9;6;4.4
61879;PMS7003;47817;52.798;27.544;2023-04-02T10:11:32;9;6.8;4.8
61879;PMS7003;47817;52.798;27.544;2023-04-02T10:16:40;6.8;5.6;4
61879;PMS7003;47817;52.798;27.544;2023-04-02T10:21:16;8.5;7;4.8
61879;PMS7003;47817;52.798;27.544;2023-04-02T10:26:37;8;6;4.4
61879;PMS7003;47817;52.798;27.544;2023-04-02T10:30:54;6.6;5.2;3.6
61879;PMS7003;47817;52.798;27.544;2023-04-02T10:36:35;6;5;3.8
61879;PMS7003;47817;52.798;27.544;2023-04-02T10:41:41;6.4;4.4;3.2
61879;PMS7003;47817;52.798;27.544;2023-04-02T10:46:11;8;6.2;4.2
61879;PMS7003;47817;52.798;27.544;2023-04-02T10:51:33;7;5.6;3.4
61879;PMS7003;47817;52.798;27.544;2023-04-02T10:56:10;10;7.2;4.8
61879;PMS7003;47817;52.798;27.544;2023-04-02T11:01:31;7.6;6.4;4.2
61879;PMS7003;47817;52.798;27.544;2023-04-02T11:06:40;7.2;5.6;4.2
61879;PMS7003;47817;52.798;27.544;2023-04-02T11:11:20;9.2;6;4.8
61879;PMS7003;47817;52.798;27.544;2023-04-02T11:16:41;9.6;7.2;5.2
61879;PMS7003;47817;52.798;27.544;2023-04-02T11:21:04;6.8;5.8;4.3
61879;PMS7003;47817;52.798;27.544;2023-04-02T11:26:33;7;5.6;4.4
61879;PMS7003;47817;52.798;27.544;2023-04-02T11:31:25;8.2;7.4;4.8
61879;PMS7003;47817;52.798;27.544;2023-04-02T11:37:28;7.4;6.6;4.8
61879;PMS7003;47817;52.798;27.544;2023-04-02T11:42:44;5.4;4;3.2
61879;PMS7003;47817;52.798;27.544;2023-04-02T11:46:03;9;6.8;5
61879;PMS7003;47817;52.798;27.544;2023-04-02T11:51:48;9;6.6;4.6
61879;PMS7003;47817;52.798;27.544;2023-04-02T11:56:40;9;5.5;4
61879;PMS7003;47817;52.798;27.544;2023-04-02T12:01:27;7.2;6.6;4.8
61879;PMS7003;47817;52.798;27.544;2023-04-02T12:06:44;9.6;7.2;4.8
61879;PMS7003;47817;52.798;27.544;2023-04-02T12:10:54;8;6;4.4
61879;PMS7003;47817;52.798;27.544;2023-04-02T12:16:32;12.6;9;6.8
61879;PMS7003;47817;52.798;27.544;2023-04-02T12:21:39;10.4;9.2;7
61879;PMS7003;47817;52.798;27.544;2023-04-02T12:26:04;7.5;5;4.3
61879;PMS7003;47817;52.798;27.544;2023-04-02T12:31:41;6.6;5.8;4.6
61879;PMS7003;47817;52.798;27.544;2023-04-02T12:36:04;9;7.2;6.2
61879;PMS7003;47817;52.798;27.544;2023-04-02T12:41:35;8.8;6.6;5.6
61879;PMS7003;47817;52.798;27.544;2023-04-02T12:46:39;9.2;7.4;5.6
61879;PMS7003;47817;52.798;27.544;2023-04-02T12:51:15;7.4;6;4
61879;PMS7003;47817;52.798;27.544;2023-04-02T12:56:37;7;5.8;4.8
61879;PMS7003;47817;52.798;27.544;2023-04-02T13:01:07;8.2;8.2;6.4
61879;PMS7003;47817;52.798;27.544;2023-04-02T13:06:31;7;5.2;3.6
61879;PMS7003;47817;52.798;27.544;2023-04-02T13:11:39;5.2;3.4;3.2
61879;PMS7003;47817;52.798;27.544;2023-04-02T13:16:22;6;5.5;3.5
61879;PMS7003;47817;52.798;27.544;2023-04-02T13:21:39;7.6;7;4.8
61879;PMS7003;47817;52.798;27.544;2023-04-02T13:25:53;11.2;9.6;6.8
61879;PMS7003;47817;52.798;27.544;2023-04-02T13:31:25;10.4;8.6;7.2
61879;PMS7003;47817;52.798;27.544;2023-04-02T13:36:39;10;9.4;8
61879;PMS7003;47817;52.798;27.544;2023-04-02T13:41:03;12.2;10.8;8
61879;PMS7003;47817;52.798;27.544;2023-04-02T13:46:39;11.5;11;9.5
61879;PMS7003;47817;52.798;27.544;2023-04-02T13:51:10;15;14.2;13.6
61879;PMS7003;47817;52.798;27.544;2023-04-02T13:56:31;7.4;4.8;3.4
61879;PMS7003;47817;52.798;27.544;2023-04-02T14:01:39;6.6;5.8;4.2
61879;PMS7003;47817;52.798;27.544;2023-04-02T14:06:09;8.2;7;5.2
61879;PMS7003;47817;52.798;27.544;2023-04-02T14:11:42;4.4;4.2;3.4
61879;PMS7003;47817;52.798;27.544;2023-04-02T14:15:58;5;4.8;3.6
61879;PMS7003;47817;52.798;27.544;2023-04-02T14:21:33;6.8;5.8;4
61879;PMS7003;47817;52.798;27.544;2023-04-02T14:26:40;8;5.8;3.8
61879;PMS7003;47817;52.798;27.544;2023-04-02T14:31:24;4.5;3.8;2.3
61879;PMS7003;47817;52.798;27.544;2023-04-02T14:36:41;4.8;2.6;2.2
61879;PMS7003;47817;52.798;27.544;2023-04-02T14:41:09;6.6;5;4
61879;PMS7003;47817;52.798;27.544;2023-04-02T14:46:35;7;6.2;4.6
61879;PMS7003;47817;52.798;27.544;2023-04-02T14:51:42;8.4;6.6;5.4
61879;PMS7003;47817;52.798;27.544;2023-04-02T14:56:17;7.4;6.4;5.6
61879;PMS7003;47817;52.798;27.544;2023-04-02T15:01:42;7.6;5;4
61879;PMS7003;47817;52.798;27.544;2023-04-02T15:06:04;6.2;4.6;3.2
61879;PMS7003;47817;52.798;27.544;2023-04-02T15:11:32;6;5;4
61879;PMS7003;47817;52.798;27.544;2023-04-02T15:16:39;4.6;3;2.2
61879;PMS7003;47817;52.798;27.544;2023-04-02T15:21:23;4.8;3;2.5
61879;PMS7003;47817;52.798;27.544;2023-04-02T15:26:11;5.4;3.2;2.8
61879;PMS7003;47817;52.798;27.544;2023-04-02T15:31:21;4.8;3.2;2.4
61879;PMS7003;47817;52.798;27.544;2023-04-02T15:36:28;4.4;3.2;2.6
61879;PMS7003;47817;52.798;27.544;2023-04-02T15:41:05;3.8;2.4;2.2
61879;PMS7003;47817;52.798;27.544;2023-04-02T15:46:40;5.4;3.4;2.6
61879;PMS7003;47817;52.798;27.544;2023-04-02T15:51:12;4;3.2;2.4
61879;PMS7003;47817;52.798;27.544;2023-04-02T15:56:12;6.3;5;3.5
61879;PMS7003;47817;52.798;27.544;2023-04-02T16:01:20;8.2;6;4.8
61879;PMS7003;47817;52.798;27.544;2023-04-02T16:06:08;7.2;5;3.8
61879;PMS7003;47817;52.798;27.544;2023-04-02T16:11:37;5.4;4.8;3.8
61879;PMS7003;47817;52.798;27.544;2023-04-02T16:16:24;5.2;4;3.2
61879;PMS7003;47817;52.798;27.544;2023-04-02T16:20:53;6.6;5.8;4.2
61879;PMS7003;47817;52.798;27.544;2023-04-02T16:26:40;5.6;4;3
61879;PMS7003;47817;52.798;27.544;2023-04-02T16:30:54;5.4;3.8;3
61879;PMS7003;47817;52.798;27.544;2023-04-02T16:36:26;5;2.8;2.8
61879;PMS7003;47817;52.798;27.544;2023-04-02T16:40:55;3.4;2;1.8
61879;PMS7003;47817;52.798;27.544;2023-04-02T16:45:55;4.8;3.4;2
61879;PMS7003;47817;52.798;27.544;2023-04-02T16:51:22;3.2;2.6;2.4
61879;PMS7003;47817;52.798;27.544;2023-04-02T16:56:07;5.6;3;2.4
61879;PMS7003;47817;52.798;27.544;2023-04-02T17:01:40;3.4;2.8;2.2
61879;PMS7003;47817;52.798;27.544;2023-04-02T17:06:04;5;3.2;2.6
61879;PMS7003;47817;52.798;27.544;2023-04-02T17:11:19;6.2;3.6;2.6
61879;PMS7003;47817;52.798;27.544;2023-04-02T17:16:23;5.3;3.3;2
61879;PMS7003;47817;52.798;27.544;2023-04-02T17:20:53;6;2.4;1.8
61879;PMS7003;47817;52.798;27.544;2023-04-02T17:26:37;4.8;2.6;2.4
61879;PMS7003;47817;52.798;27.544;2023-04-02T17:30:59;4;3;2.2
61879;PMS7003;47817;52.798;27.544;2023-04-02T17:35:56;7;3.6;2.6
61879;PMS7003;47817;52.798;27.544;2023-04-02T17:41:21;3.6;2.4;1.6
61879;PMS7003;47817;52.798;27.544;2023-04-02T17:46:19;5;2.8;1.8
61879;PMS7003;47817;52.798;27.544;2023-04-02T17:51:38;2;1;1
61879;PMS7003;47817;52.798;27.544;2023-04-02T17:55:56;2.8;1.6;1
61879;PMS7003;47817;52.798;27.544;2023-04-02T18:01:09;1.8;1.2;1
61879;PMS7003;47817;52.798;27.544;2023-04-02T18:06:17;2.4;1.6;1.2
61879;PMS7003;47817;52.798;27.544;2023-04-02T18:10:56;1;0.6;0.6
61879;PMS7003;47817;52.798;27.544;2023-04-02T18:16:42;1.2;0.8;0.8
61879;PMS7003;47817;52.798;27.544;2023-04-02T18:21:11;2.2;1.4;1.2
61879;PMS7003;47817;52.798;27.544;2023-04-02T18:26:21;1.5;1.3;0.8
61879;PMS7003;47817;52.798;27.544;2023-04-02T18:31:26;1.4;1.2;1
61879;PMS7003;47817;52.798;27.544;2023-04-02T18:36:05;2.6;2;1.6
61879;PMS7003;47817;52.798;27.544;2023-04-02T18:41:43;1.3;1.3;1
61879;PMS7003;47817;52.798;27.544;2023-04-02T18:46:12;4.8;3.8;3.2
61879;PMS7003;47817;52.798;27.544;2023-04-02T18:50:53;3.8;1.8;1.6
61879;PMS7003;47817;52.798;27.544;2023-04-02T18:56:23;2.8;1.6;1.2
61879;PMS7003;47817;52.798;27.544;2023-04-02T19:01:40;3.6;2.8;1.8
61879;PMS7003;47817;52.798;27.544;2023-04-02T19:06:40;2.6;2;1.8
61879;PMS7003;47817;52.798;27.544;2023-04-02T19:11:10;3.8;2.6;2.4
61879;PMS7003;47817;52.798;27.544;2023-04-02T19:15:57;3.2;3;2.6
61879;PMS7003;47817;52.798;27.544;2023-04-02T19:21:42;2.8;2.8;2.5
61879;PMS7003;47817;52.798;27.544;2023-04-02T19:26:18;5.4;4.4;3.8
61879;PMS7003;47817;52.798;27.544;2023-04-02T19:31:42;4.2;3;2.6
61879;PMS7003;47817;52.798;27.544;2023-04-02T19:36:05;5.8;4.6;3
61879;PMS7003;47817;52.798;27.544;2023-04-02T19:41:40;3;2.3;1.8
61879;PMS7003;47817;52.798;27.544;2023-04-02T20:00:53;5;5;2
61879;PMS7003;47817;52.798;27.544;2023-04-02T20:06:39;4;2.5;1.8
61879;PMS7003;47817;52.798;27.544;2023-04-02T20:11:17;4.6;3;2.8
61879;PMS7003;47817;52.798;27.544;2023-04-02T20:15:54;5.8;4.4;3.6
61879;PMS7003;47817;52.798;27.544;2023-04-02T20:21:39;5.4;3.4;2.8
61879;PMS7003;47817;52.798;27.544;2023-04-02T20:25:54;6.6;4.4;3
61879;PMS7003;47817;52.798;27.544;2023-04-02T20:31:34;5;3.8;3.2
61879;PMS7003;47817;52.798;27.544;2023-04-02T20:36:23;4.8;3.2;2.8
61879;PMS7003;47817;52.798;27.544;2023-04-02T20:40:53;6.5;3.5;3
61879;PMS7003;47817;52.798;27.544;2023-04-02T20:46:39;5.6;4.6;3.4
61879;PMS7003;47817;52.798;27.544;2023-04-02T20:50:53;6.6;4.6;3.6
61879;PMS7003;47817;52.798;27.544;2023-04-02T20:56:39;6.2;4.8;3.6
61879;PMS7003;47817;52.798;27.544;2023-04-02T21:01:18;5.6;3.6;2.8
61879;PMS7003;47817;52.798;27.544;2023-04-02T21:06:04;4.8;2.8;2
61879;PMS7003;47817;52.798;27.544;2023-04-02T21:11:42;5;2.8;2
61879;PMS7003;47817;52.798;27.544;2023-04-02T21:15:53;3.4;2.8;2
61879;PMS7003;47817;52.798;27.544;2023-04-02T21:21:20;5.2;3;2
61879;PMS7003;47817;52.798;27.544;2023-04-02T21:26:24;5.8;4.5;3
61879;PMS7003;47817;52.798;27.544;2023-04-02T21:31:04;4.4;3.4;2.6
61879;PMS7003;47817;52.798;27.544;2023-04-02T21:36:42;5.2;4.4;3.6
61879;PMS7003;47817;52.798;27.544;2023-04-02T21:41:11;3.6;2.8;1.8
61879;PMS7003;47817;52.798;27.544;2023-04-02T21:46:40;5.3;4.3;3.8
61879;PMS7003;47817;52.798;27.544;2023-04-02T21:51:24;5.6;4.6;3.2
61879;PMS7003;47817;52.798;27.544;2023-04-02T21:56:40;7;4.8;4
61879;PMS7003;47817;52.798;27.544;2023-04-02T22:01:40;6.8;4.6;3
61879;PMS7003;47817;52.798;27.544;2023-04-02T22:06:02;3.8;3.4;3.2
61879;PMS7003;47817;52.798;27.544;2023-04-02T22:11:42;5.6;4;2.8
61879;PMS7003;47817;52.798;27.544;2023-04-02T22:16:18;5.6;4.8;3.8
61879;PMS7003;47817;52.798;27.544;2023-04-02T22:20:53;5.6;4.4;3.6
61879;PMS7003;47817;52.798;27.544;2023-04-02T22:26:41;5.6;4.6;3.4
61879;PMS7003;47817;52.798;27.544;2023-04-02T22:31:11;6.2;4;3
61879;PMS7003;47817;52.798;27.544;2023-04-02T22:36:41;6.3;4.5;3.5
61879;PMS7003;47817;52.798;27.544;2023-04-02T22:41:22;6.4;4.4;4.2
61879;PMS7003;47817;52.798;27.544;2023-04-02T22:46:18;5.4;4;3.6
61879;PMS7003;47817;52.798;27.544;2023-04-02T22:51:39;7.4;4.6;3.2
61879;PMS7003;47817;52.798;27.544;2023-04-02T22:56:10;4;3.2;3
61879;PMS7003;47817;52.798;27.544;2023-04-02T23:01:39;4.8;4.2;3.4
61879;PMS7003;47817;52.798;27.544;2023-04-02T23:06:23;5.5;3.5;2.5
61879;PMS7003;47817;52.798;27.544;2023-04-02T23:11:18;6;4;3.8
61879;PMS7003;47817;52.798;27.544;2023-04-02T23:16:39;4;2.6;2.4
61879;PMS7003;47817;52.798;27.544;2023-04-02T23:20:53;3.6;2.6;2.2
61879;PMS7003;47817;52.798;27.544;2023-04-02T23:26:39;4.6;2.8;2.4
61879;PMS7003;47817;52.798;27.544;2023-04-02T23:31:23;3.6;2.2;2.2
61879;PMS7003;47817;52.798;27.544;2023-04-02T23:35:53;3.6;2.8;2
61879;PMS7003;47817;52.798;27.544;2023-04-02T23:41:24;3.6;3.2;2
61879;PMS7003;47817;52.798;27.544;2023-04-02T23:46:09;4.8;3.8;2.8
61879;PMS7003;47817;52.798;27.544;2023-04-02T23:51:39;3.6;3.6;2.6
61879;PMS7003;47817;52.798;27.544;2023-04-02T23:56:23;4.8;3;3
